KRMG/RMG METAR and TAF weather

Enter ICAO airport designator
Station Type Date Time Source
KRMG METAR 2019/05/21 19:53 UTC NOAA

KRMG 211953Z AUTO 17008KT 10SM BKN070 BKN080 32/16 A2991 RMK AO2 SLP119 T03220161


Station Type Date Time Source
KRMG Decoded METAR 2019/05/21 19:53 UTC NOAA

ROME R. B. RUSSELL AIRPORT, GA, United States (KRMG) 34-21N 085-10W 193M
May 21, 2019 - 03:53 PM EDT / 2019.05.21 1953 UTC
Wind: from the S (170 degrees) at 9 MPH (8 KT):0
Visibility: 10 mile(s):0
Sky conditions: mostly cloudy
Temperature: 90.0 F (32.2 C)
Dew Point: 61.0 F (16.1 C)
Relative Humidity: 38%
Pressure (altimeter): 29.91 in. Hg (1012 hPa)
ob: KRMG 211953Z AUTO 17008KT 10SM BKN070 BKN080 32/16 A2991 RMK AO2 SLP119 T03220161
cycle: 20

Station Type Date Time Source
KRMG TAF UTC NOAA

Error!

Example: see airport list